Time;durP1;ratioP1;P1;durP2;ratioP2;P2;SDS_P1;SDS_P2;PMS_P1;PMS_P2;Temp;Humidity;BMP_temperature;BMP_pressure;BME280_temperature;BME280_humidity;BME280_pressure;Samples;Min_cycle;Max_cycle;Signal;HPM_P1;HPM_P2
2023/05/17 00:00:50;;;;;;;15.00;8.20;;;;;;;17.98;77.97;98311.47;4300704;33;32218;-92
2023/05/17 00:03:18;;;;;;;14.68;8.68;;;;;;;18.08;77.37;98322.56;4300463;33;33806;-93
2023/05/17 00:05:45;;;;;;;14.95;9.65;;;;;;;17.90;77.79;98324.81;4287221;33;34460;-93
2023/05/17 00:08:13;;;;;;;15.75;8.80;;;;;;;18.07;77.01;98321.69;4274182;33;34712;-92
2023/05/17 00:10:42;;;;;;;15.73;8.38;;;;;;;18.20;76.09;98322.16;4288934;33;34210;-93
2023/05/17 00:13:09;;;;;;;15.80;8.70;;;;;;;18.13;76.04;98324.09;4288103;33;33933;-92
2023/05/17 00:15:37;;;;;;;14.95;8.30;;;;;;;18.07;76.31;98324.31;4301113;33;34055;-92
2023/05/17 00:18:04;;;;;;;16.17;8.85;;;;;;;18.20;75.91;98332.66;4289058;33;34157;-92
2023/05/17 00:20:32;;;;;;;13.80;7.95;;;;;;;18.28;75.12;98320.16;4300467;33;34343;-94
2023/05/17 00:22:59;;;;;;;16.67;8.95;;;;;;;18.24;74.91;98321.16;4300920;33;32552;-93
2023/05/17 00:25:27;;;;;;;16.52;9.98;;;;;;;18.22;74.87;98321.22;4300397;33;34902;-93
2023/05/17 00:27:55;;;;;;;19.55;8.30;;;;;;;18.14;74.89;98320.56;4301644;33;33988;-92
2023/05/17 00:30:23;;;;;;;20.95;8.48;;;;;;;18.31;74.20;98320.06;4300770;33;33580;-91
2023/05/17 00:32:50;;;;;;;13.43;8.35;;;;;;;18.23;74.46;98319.44;4287218;33;34421;-92
2023/05/17 00:35:18;;;;;;;16.77;7.95;;;;;;;18.23;74.26;98319.44;4301623;33;35204;-93
2023/05/17 00:37:46;;;;;;;15.52;9.13;;;;;;;18.31;73.67;98322.69;4300714;33;33655;-93
2023/05/17 00:40:15;;;;;;;17.48;7.93;;;;;;;18.23;73.91;98314.19;4289068;33;33203;-93
2023/05/17 00:42:42;;;;;;;18.08;8.35;;;;;;;18.33;73.43;98317.37;4286635;33;33707;-92
2023/05/17 00:45:10;;;;;;;15.40;7.28;;;;;;;18.22;73.59;98315.97;4300289;33;34979;-92
2023/05/17 00:47:38;;;;;;;12.98;7.87;;;;;;;18.18;73.38;98313.47;4300196;33;34186;-93
2023/05/17 00:50:06;;;;;;;14.07;7.65;;;;;;;18.24;73.28;98315.91;4301171;33;33362;-92
2023/05/17 00:52:34;;;;;;;14.63;8.02;;;;;;;18.18;73.60;98318.72;4300232;33;33651;-94
2023/05/17 00:55:02;;;;;;;13.23;7.75;;;;;;;18.16;73.49;98320.53;4288323;33;33578;-93
2023/05/17 00:57:31;;;;;;;19.12;8.50;;;;;;;18.13;73.71;98325.88;4287321;33;34426;-93
2023/05/17 01:00:00;;;;;;;10.85;7.20;;;;;;;18.21;73.42;98318.63;4299678;33;33762;-92
2023/05/17 01:02:30;;;;;;;16.52;7.90;;;;;;;18.18;73.63;98321.34;4299875;33;33980;-96
2023/05/17 01:04:58;;;;;;;17.95;9.80;;;;;;;18.14;73.98;98317.09;4301356;33;34054;-92
2023/05/17 01:07:25;;;;;;;15.70;8.63;;;;;;;18.13;74.12;98323.25;4285223;33;33684;-92
2023/05/17 01:09:53;;;;;;;20.83;8.68;;;;;;;18.18;74.05;98332.72;4300977;33;33735;-93
2023/05/17 01:12:31;;;;;;;14.00;8.13;;;;;;;18.24;73.92;98339.53;4287528;33;33978;-92
2023/05/17 01:15:05;;;;;;;15.75;8.40;;;;;;;18.17;74.24;98338.00;4300111;33;33850;-94
2023/05/17 01:17:39;;;;;;;14.55;8.30;;;;;;;18.06;74.88;98330.44;4286778;33;34794;-95
2023/05/17 01:20:16;;;;;;;15.75;8.75;;;;;;;18.01;75.40;98329.75;4275665;33;33350;-94
2023/05/17 01:22:47;;;;;;;14.87;9.35;;;;;;;17.98;75.68;98333.31;4288200;33;33616;-92
2023/05/17 01:25:22;;;;;;;13.68;8.88;;;;;;;17.83;76.39;98333.78;4299326;33;35063;-93
2023/05/17 01:27:50;;;;;;;20.95;8.98;;;;;;;18.09;75.55;98335.59;4287409;33;33809;-94
2023/05/17 01:30:19;;;;;;;19.17;8.43;;;;;;;17.96;76.19;98337.75;4287152;33;35113;-92
2023/05/17 01:32:47;;;;;;;14.40;8.55;;;;;;;18.05;76.01;98331.37;4300724;33;33936;-96
2023/05/17 01:35:14;;;;;;;19.35;9.05;;;;;;;18.16;75.42;98317.91;4301022;33;33690;-96
2023/05/17 01:37:42;;;;;;;12.18;8.18;;;;;;;18.19;75.39;98313.44;4284892;33;34584;-92
2023/05/17 01:40:10;;;;;;;14.00;8.45;;;;;;;18.21;75.09;98297.62;4287983;33;33631;-95
2023/05/17 01:42:39;;;;;;;15.27;8.68;;;;;;;18.17;75.13;98293.41;4287608;33;34615;-94
2023/05/17 01:45:22;;;;;;;15.93;9.10;;;;;;;18.15;74.99;98288.22;4287861;33;34180;-93
2023/05/17 01:48:01;;;;;;;15.45;8.50;;;;;;;18.21;74.89;98279.28;4298840;33;33708;-93
2023/05/17 01:50:30;;;;;;;13.02;8.68;;;;;;;18.22;74.63;98273.09;4300471;33;33246;-95
2023/05/17 01:53:00;;;;;;;15.40;9.13;;;;;;;18.16;74.19;98270.69;4279688;33;33505;-92
2023/05/17 01:55:43;;;;;;;19.10;9.02;;;;;;;18.09;74.21;98277.03;4299964;33;32796;-93
2023/05/17 01:58:12;;;;;;;14.32;8.50;;;;;;;17.97;74.71;98279.16;4290105;33;33967;-93
2023/05/17 02:00:42;;;;;;;11.75;8.80;;;;;;;17.93;74.41;98282.78;4299465;33;34200;-94
2023/05/17 02:03:20;;;;;;;14.45;8.25;;;;;;;18.06;73.86;98293.72;4287101;33;33787;-93
2023/05/17 02:05:49;;;;;;;16.87;9.32;;;;;;;18.11;72.99;98286.59;4287579;33;35072;-94
2023/05/17 02:08:16;;;;;;;16.08;9.70;;;;;;;18.05;72.88;98283.28;4298703;33;33993;-93
2023/05/17 02:10:44;;;;;;;15.00;9.57;;;;;;;17.97;72.48;98289.62;4301205;33;33601;-93
2023/05/17 02:13:12;;;;;;;16.33;9.63;;;;;;;17.92;72.45;98295.94;4299549;33;33653;-92
2023/05/17 02:15:39;;;;;;;15.50;10.68;;;;;;;17.86;72.67;98290.88;4300662;33;35081;-95
2023/05/17 02:18:07;;;;;;;12.13;9.02;;;;;;;17.84;72.57;98296.19;4286768;33;33897;-92
2023/05/17 02:20:35;;;;;;;15.63;9.88;;;;;;;17.86;72.44;98291.72;4301242;33;33188;-93
2023/05/17 02:23:03;;;;;;;17.00;9.80;;;;;;;17.88;71.94;98299.53;4299158;33;34858;-96
2023/05/17 02:25:30;;;;;;;16.08;8.90;;;;;;;17.87;72.13;98303.94;4299952;33;35061;-96
2023/05/17 02:27:58;;;;;;;13.15;8.20;;;;;;;17.73;71.96;98308.72;4299331;33;34505;-92
2023/05/17 02:30:27;;;;;;;11.95;7.85;;;;;;;17.64;72.21;98314.22;4299532;33;33804;-92
2023/05/17 02:32:55;;;;;;;12.90;8.50;;;;;;;17.82;70.90;98318.09;4286562;33;32604;-92
2023/05/17 02:35:23;;;;;;;14.00;8.80;;;;;;;17.58;71.29;98323.13;4299611;33;34278;-91
2023/05/17 02:37:50;;;;;;;14.02;8.40;;;;;;;17.64;70.86;98337.81;4287303;33;33544;-91
2023/05/17 02:40:18;;;;;;;12.88;9.05;;;;;;;17.57;71.19;98344.12;4287280;33;34411;-93
2023/05/17 02:42:46;;;;;;;17.08;8.73;;;;;;;17.45;71.61;98342.72;4298779;33;34763;-93
2023/05/17 02:45:14;;;;;;;17.65;9.32;;;;;;;17.58;70.97;98341.47;4285623;33;34304;-93
2023/05/17 02:47:41;;;;;;;18.27;10.00;;;;;;;17.32;71.66;98336.97;4275781;33;33713;-93
2023/05/17 02:50:10;;;;;;;12.25;9.38;;;;;;;17.32;71.72;98339.59;4301310;33;34066;-94
2023/05/17 02:52:37;;;;;;;13.00;9.05;;;;;;;17.31;71.98;98339.63;4298739;33;34106;-92
2023/05/17 02:55:05;;;;;;;16.08;9.80;;;;;;;17.32;72.04;98341.34;4299104;33;34216;-92
2023/05/17 02:57:33;;;;;;;13.75;9.38;;;;;;;17.25;72.38;98340.66;4299202;33;34771;-95
2023/05/17 03:00:01;;;;;;;21.40;12.23;;;;;;;17.16;72.98;98341.78;4301113;33;34226;-94
2023/05/17 03:02:29;;;;;;;17.95;10.57;;;;;;;17.15;74.43;98337.41;4288313;33;34190;-93
2023/05/17 03:04:57;;;;;;;20.77;10.32;;;;;;;17.18;74.38;98339.09;4289392;33;33863;-93
2023/05/17 03:07:24;;;;;;;24.10;13.70;;;;;;;17.12;74.71;98336.62;4287461;33;33833;-96
2023/05/17 03:09:52;;;;;;;21.67;13.13;;;;;;;17.32;74.75;98336.12;4302217;33;33310;-93
2023/05/17 03:12:20;;;;;;;20.85;13.85;;;;;;;17.22;76.34;98333.72;4299245;33;33872;-94
2023/05/17 03:14:48;;;;;;;23.75;14.45;;;;;;;17.14;77.51;98346.19;4302666;33;34220;-94
2023/05/17 03:17:15;;;;;;;28.27;16.33;;;;;;;16.75;80.23;98358.56;4298555;33;32775;-93
2023/05/17 03:19:44;;;;;;;23.27;15.30;;;;;;;16.39;83.33;98365.50;4302537;33;33743;-94
2023/05/17 03:22:11;;;;;;;21.83;16.15;;;;;;;16.77;80.74;98364.59;4300761;33;32487;-93
2023/05/17 03:24:39;;;;;;;25.08;16.75;;;;;;;16.72;80.74;98358.59;4301712;33;33831;-92
2023/05/17 03:27:06;;;;;;;26.65;17.60;;;;;;;17.05;78.66;98351.69;4300294;33;33814;-93
2023/05/17 03:29:35;;;;;;;24.52;17.23;;;;;;;16.59;81.51;98368.47;4299997;33;33524;-92
2023/05/17 03:32:02;;;;;;;32.10;19.30;;;;;;;16.61;81.56;98358.00;4301545;33;34870;-92
2023/05/17 03:34:30;;;;;;;31.17;20.25;;;;;;;16.52;82.77;98370.41;4287320;33;34140;-94
2023/05/17 03:36:57;;;;;;;30.25;21.40;;;;;;;16.47;83.20;98372.25;4294110;33;34268;-94
2023/05/17 03:39:25;;;;;;;31.80;20.58;;;;;;;16.51;83.56;98379.13;4300291;33;33154;-95
2023/05/17 03:41:53;;;;;;;27.77;20.60;;;;;;;16.38;83.61;98379.47;4300697;33;33806;-92
2023/05/17 03:44:21;;;;;;;32.00;20.95;;;;;;;16.15;85.93;98380.00;4287269;33;34070;-94
2023/05/17 03:46:49;;;;;;;25.40;18.95;;;;;;;15.96;86.75;98383.00;4301372;33;34056;-94
2023/05/17 03:49:17;;;;;;;26.45;19.48;;;;;;;16.47;83.61;98382.72;4301113;33;34567;-93
2023/05/17 03:51:45;;;;;;;30.80;21.25;;;;;;;16.62;82.74;98393.72;4287459;33;34174;-93
2023/05/17 03:54:12;;;;;;;26.45;17.85;;;;;;;16.28;84.07;98402.34;4301096;33;34686;-94
2023/05/17 03:56:45;;;;;;;23.45;16.55;;;;;;;16.33;83.68;98404.84;4300829;33;33909;-92
2023/05/17 03:59:13;;;;;;;20.00;16.58;;;;;;;16.27;84.12;98411.09;4301314;33;34279;-92
2023/05/17 04:01:41;;;;;;;23.35;15.82;;;;;;;16.27;84.04;98411.09;4301081;33;33821;-92
2023/05/17 04:04:09;;;;;;;22.85;15.98;;;;;;;16.46;82.71;98417.63;4299403;33;34237;-93
2023/05/17 04:06:37;;;;;;;19.55;14.93;;;;;;;16.44;81.97;98415.94;4301663;33;34311;-95
2023/05/17 04:09:06;;;;;;;22.30;14.87;;;;;;;16.39;83.04;98415.19;4287679;33;34503;-95
2023/05/17 04:11:34;;;;;;;17.42;14.27;;;;;;;16.30;82.61;98422.38;4287495;33;34373;-94
2023/05/17 04:14:01;;;;;;;20.05;15.10;;;;;;;16.40;82.71;98432.59;4287320;33;33870;-96
2023/05/17 04:16:29;;;;;;;22.17;15.35;;;;;;;16.57;82.20;98432.25;4286136;33;33234;-93
2023/05/17 04:18:59;;;;;;;20.98;15.38;;;;;;;16.11;84.00;98425.41;4298698;33;33319;-93
2023/05/17 04:21:30;;;;;;;23.38;15.75;;;;;;;15.89;86.29;98425.84;4301580;33;33591;-95
2023/05/17 04:23:57;;;;;;;22.37;16.12;;;;;;;16.03;85.45;98421.22;4299954;33;33549;-91
2023/05/17 04:26:25;;;;;;;22.37;15.02;;;;;;;16.13;84.51;98424.47;4301895;33;34629;-93
2023/05/17 04:28:53;;;;;;;19.42;15.05;;;;;;;16.07;84.97;98429.00;4287086;33;34412;-91
2023/05/17 04:31:21;;;;;;;21.48;15.55;;;;;;;16.19;84.77;98434.81;4299365;33;33813;-93
2023/05/17 04:33:49;;;;;;;24.23;16.73;;;;;;;16.30;84.41;98434.59;4300243;33;34301;-92
2023/05/17 04:36:17;;;;;;;18.60;14.55;;;;;;;16.32;84.22;98448.47;4301043;33;33669;-92
2023/05/17 04:38:45;;;;;;;20.80;14.10;;;;;;;16.56;82.91;98454.06;4300570;33;34241;-94
2023/05/17 04:41:13;;;;;;;21.15;14.45;;;;;;;17.16;79.93;98461.37;4300434;33;34100;-94
2023/05/17 04:43:41;;;;;;;16.85;13.45;;;;;;;16.67;81.92;98460.78;4286467;33;34238;-95
2023/05/17 04:46:10;;;;;;;18.10;13.80;;;;;;;16.60;82.50;98460.97;4287682;33;33964;-92
2023/05/17 04:48:37;;;;;;;16.75;12.88;;;;;;;16.76;81.18;98467.59;4300081;33;33449;-91
2023/05/17 04:51:06;;;;;;;17.95;13.15;;;;;;;16.34;83.31;98485.94;4301338;33;33501;-96
2023/05/17 04:53:34;;;;;;;17.60;13.40;;;;;;;16.27;83.83;98479.09;4298476;33;34200;-94
2023/05/17 04:56:03;;;;;;;16.52;12.35;;;;;;;16.60;81.91;98477.53;4305520;33;33700;-94
2023/05/17 04:58:30;;;;;;;17.92;12.37;;;;;;;16.63;81.61;98481.81;4292794;33;34007;-93
2023/05/17 05:00:59;;;;;;;15.20;11.07;;;;;;;16.64;81.80;98491.41;4292332;33;33447;-93
2023/05/17 05:03:31;;;;;;;14.27;10.80;;;;;;;16.70;81.19;98499.09;4301253;33;34432;-93
2023/05/17 05:05:59;;;;;;;17.20;11.10;;;;;;;16.71;81.25;98491.22;4301778;33;34569;-93
2023/05/17 05:08:27;;;;;;;15.35;9.63;;;;;;;16.77;80.78;98485.00;4301802;33;34312;-93
2023/05/17 05:10:55;;;;;;;15.10;10.10;;;;;;;16.73;80.66;98481.59;4301904;33;35257;-93
2023/05/17 05:13:23;;;;;;;13.62;8.93;;;;;;;16.86;80.32;98482.19;4301955;33;34035;-93
2023/05/17 05:15:51;;;;;;;16.02;10.40;;;;;;;16.75;81.08;98485.06;4301247;33;34189;-91
2023/05/17 05:18:23;;;;;;;19.40;11.23;;;;;;;16.51;82.17;98469.84;4302503;33;34106;-96
2023/05/17 05:20:50;;;;;;;16.20;9.93;;;;;;;16.21;83.14;98472.28;4301101;33;34016;-96
2023/05/17 05:23:18;;;;;;;14.73;10.18;;;;;;;17.08;78.84;98473.78;4289470;33;34081;-92
2023/05/17 05:25:46;;;;;;;16.48;10.18;;;;;;;16.54;82.13;98488.09;4301940;33;34023;-92
2023/05/17 05:28:14;;;;;;;16.40;11.27;;;;;;;16.57;82.34;98492.44;4358928;27;33926;-94
2023/05/17 05:30:42;;;;;;;18.08;12.13;;;;;;;16.78;81.87;98494.56;4330705;33;34011;-93
2023/05/17 05:33:10;;;;;;;18.15;11.63;;;;;;;17.08;80.15;98498.22;4330916;33;34008;-96
2023/05/17 05:35:38;;;;;;;21.92;12.43;;;;;;;16.47;82.83;98492.59;4316743;33;34686;-94
2023/05/17 05:38:06;;;;;;;18.40;13.30;;;;;;;16.21;85.22;98500.16;4315464;33;32984;-93
2023/05/17 05:40:35;;;;;;;25.30;13.38;;;;;;;16.59;83.36;98506.31;4326725;33;34663;-93
2023/05/17 05:43:02;;;;;;;18.77;12.15;;;;;;;16.58;82.57;98509.84;4331531;33;33436;-94
2023/05/17 05:45:30;;;;;;;19.35;12.80;;;;;;;17.01;80.78;98510.62;4317980;33;33946;-96
2023/05/17 05:47:58;;;;;;;22.35;13.68;;;;;;;17.24;79.81;98522.31;4330053;33;33473;-93
2023/05/17 05:50:27;;;;;;;22.27;14.18;;;;;;;16.81;81.87;98518.06;4330446;33;34739;-93
2023/05/17 05:53:00;;;;;;;19.92;13.48;;;;;;;16.73;82.56;98515.63;4328461;33;33891;-92
2023/05/17 05:55:46;;;;;;;23.52;13.85;;;;;;;16.62;83.31;98521.97;4307369;33;34336;-90
2023/05/17 05:58:13;;;;;;;20.27;12.60;;;;;;;17.00;81.02;98526.34;4330662;33;33225;-91
2023/05/17 06:00:40;;;;;;;23.17;12.55;;;;;;;16.88;81.51;98529.28;4317834;33;34517;-92
2023/05/17 06:03:08;;;;;;;19.70;11.23;;;;;;;16.84;81.74;98525.84;4317519;33;34109;-92
2023/05/17 06:05:37;;;;;;;18.05;11.75;;;;;;;17.06;80.66;98525.38;4316385;33;33963;-92
2023/05/17 06:08:05;;;;;;;16.15;10.82;;;;;;;17.13;80.85;98519.94;4331690;33;33433;-92
2023/05/17 06:10:35;;;;;;;19.80;11.35;;;;;;;17.43;79.19;98518.34;4314920;33;33650;-91
2023/05/17 06:13:02;;;;;;;18.15;11.55;;;;;;;17.21;79.82;98517.16;4302768;33;33221;-91
2023/05/17 06:15:30;;;;;;;20.05;11.00;;;;;;;17.23;79.93;98510.94;4316441;33;33963;-89
2023/05/17 06:17:58;;;;;;;15.95;10.50;;;;;;;17.43;78.73;98518.34;4308158;33;34185;-92
2023/05/17 06:20:25;;;;;;;17.45;10.07;;;;;;;17.48;78.21;98518.22;4315725;33;33699;-91
2023/05/17 06:22:53;;;;;;;15.65;10.13;;;;;;;17.05;80.07;98507.91;4316019;33;33705;-90
2023/05/17 06:25:21;;;;;;;17.58;10.02;;;;;;;16.69;82.26;98519.16;4290937;33;32707;-90
2023/05/17 06:27:49;;;;;;;19.45;10.07;;;;;;;16.87;81.85;98520.56;4315498;33;33436;-91
2023/05/17 06:30:16;;;;;;;13.05;9.77;;;;;;;16.67;83.56;98522.75;4305379;33;33679;-91
2023/05/17 06:32:44;;;;;;;15.68;9.68;;;;;;;16.66;83.01;98529.69;4320085;33;33905;-91
2023/05/17 06:35:12;;;;;;;15.70;9.25;;;;;;;16.78;82.20;98532.09;4320799;33;34387;-91
2023/05/17 06:37:39;;;;;;;14.50;9.77;;;;;;;17.02;81.17;98532.44;4297629;33;33984;-93
2023/05/17 06:40:09;;;;;;;14.80;10.25;;;;;;;16.73;81.67;98530.44;4319036;33;34724;-91
2023/05/17 06:42:43;;;;;;;15.95;10.05;;;;;;;16.87;81.46;98528.41;4319344;33;35070;-91
2023/05/17 06:45:11;;;;;;;19.10;10.25;;;;;;;16.69;83.23;98547.09;4320020;33;34665;-90
2023/05/17 06:47:39;;;;;;;16.73;10.52;;;;;;;17.01;81.60;98547.28;4308077;33;33815;-91
2023/05/17 06:50:07;;;;;;;17.17;11.10;;;;;;;16.93;81.49;98550.97;4303792;33;34448;-90
2023/05/17 06:52:35;;;;;;;19.20;12.18;;;;;;;17.20;80.38;98565.19;4290369;33;33592;-91
2023/05/17 06:55:03;;;;;;;18.12;11.70;;;;;;;16.61;83.61;98556.88;4302320;33;33877;-90
2023/05/17 06:57:30;;;;;;;19.95;11.68;;;;;;;16.97;81.76;98557.84;4317748;33;34430;-90
2023/05/17 06:59:58;;;;;;;16.15;11.90;;;;;;;17.19;80.88;98568.69;4302748;33;34659;-91
2023/05/17 07:02:25;;;;;;;16.27;11.80;;;;;;;17.12;82.05;98564.50;4316114;33;34685;-91
2023/05/17 07:04:53;;;;;;;16.52;11.98;;;;;;;17.51;78.82;98567.94;4315865;33;34664;-89
2023/05/17 07:07:21;;;;;;;16.37;11.77;;;;;;;17.33;78.39;98568.37;4318751;33;33218;-89
2023/05/17 07:09:48;;;;;;;18.77;12.93;;;;;;;17.23;79.47;98578.19;4315686;33;33875;-92
2023/05/17 07:12:16;;;;;;;20.15;12.55;;;;;;;16.87;81.42;98575.53;4316083;33;33928;-90
2023/05/17 07:14:43;;;;;;;19.48;12.32;;;;;;;16.94;81.55;98581.50;4316178;33;34483;-91
2023/05/17 07:17:11;;;;;;;14.27;11.90;;;;;;;17.26;78.45;98579.00;4315386;33;34070;-90
2023/05/17 07:19:38;;;;;;;15.15;11.60;;;;;;;16.89;80.64;98578.97;4316698;33;33873;-91
2023/05/17 07:22:06;;;;;;;19.17;12.48;;;;;;;16.92;81.45;98572.81;4316261;33;35521;-90
2023/05/17 07:24:34;;;;;;;19.25;13.02;;;;;;;16.80;83.25;98566.09;4316366;33;34684;-90
2023/05/17 07:27:02;;;;;;;18.55;12.25;;;;;;;16.53;83.76;98563.13;4316291;33;33525;-92
2023/05/17 07:29:29;;;;;;;15.20;11.65;;;;;;;16.74;81.71;98564.47;4319515;33;33480;-90
2023/05/17 07:31:57;;;;;;;19.50;11.43;;;;;;;16.49;84.11;98569.34;4302109;33;34248;-92
2023/05/17 07:34:24;;;;;;;16.92;10.93;;;;;;;16.63;83.08;98576.00;4312212;33;92773;-90
2023/05/17 07:36:52;;;;;;;14.50;10.35;;;;;;;16.49;83.18;98589.41;4315026;33;34313;-90
2023/05/17 07:39:20;;;;;;;15.38;9.90;;;;;;;16.52;82.16;98579.75;4314936;33;33538;-91
2023/05/17 07:41:47;;;;;;;16.45;10.43;;;;;;;16.40;83.88;98584.34;4314841;33;34386;-90
2023/05/17 07:44:15;;;;;;;15.70;9.98;;;;;;;16.43;83.14;98585.13;4315298;33;34146;-91
2023/05/17 07:46:42;;;;;;;13.90;8.88;;;;;;;16.78;81.19;98588.81;4305148;33;34217;-91
2023/05/17 08:11:09;;;;;;;14.05;7.35;;;;;;;16.52;80.75;98605.91;5100209;27;20091;31
2023/05/17 08:13:37;;;;;;;13.05;8.05;;;;;;;16.26;82.88;98603.81;4301529;33;34631;-83
2023/05/17 08:16:06;;;;;;;13.48;7.97;;;;;;;16.59;81.26;98609.25;4303217;33;33712;-87
2023/05/17 08:18:41;;;;;;;13.35;8.00;;;;;;;16.98;78.04;98604.09;4303058;33;34282;-86
2023/05/17 08:21:10;;;;;;;13.52;8.15;;;;;;;16.64;80.16;98609.16;4289980;33;33852;-82
2023/05/17 08:23:40;;;;;;;13.10;8.90;;;;;;;17.02;78.06;98611.84;4303419;33;34826;-82
2023/05/17 08:26:08;;;;;;;12.37;7.78;;;;;;;16.98;78.23;98607.59;4303254;33;34910;-86
2023/05/17 08:28:35;;;;;;;15.85;8.23;;;;;;;16.96;77.93;98611.97;4290235;33;33431;-87
2023/05/17 08:31:03;;;;;;;11.90;8.45;;;;;;;17.20;76.44;98615.81;4303310;33;33177;-86
2023/05/17 08:33:31;;;;;;;12.13;8.05;;;;;;;17.43;75.84;98622.28;4303724;33;34004;-84
2023/05/17 08:36:01;;;;;;;13.40;7.93;;;;;;;17.03;77.97;98616.19;4303309;33;34199;-84
2023/05/17 08:38:29;;;;;;;14.50;9.00;;;;;;;16.75;79.79;98628.16;4289952;33;34007;-82
2023/05/17 08:40:58;;;;;;;20.23;9.75;;;;;;;16.56;80.96;98634.63;4302014;33;34122;-85
2023/05/17 08:43:27;;;;;;;14.15;9.23;;;;;;;16.70;81.11;98629.97;4303093;33;33553;-82
2023/05/17 08:45:56;;;;;;;19.08;11.02;;;;;;;16.66;81.18;98634.41;4289968;33;34663;-84
2023/05/17 08:48:26;;;;;;;14.70;10.38;;;;;;;16.22;83.90;98633.53;4303019;33;34059;-84
2023/05/17 08:50:54;;;;;;;15.57;10.23;;;;;;;16.70;81.97;98625.59;4303231;33;33291;-85
2023/05/17 08:53:22;;;;;;;14.87;9.65;;;;;;;17.21;79.75;98622.78;4303193;33;33764;-83
2023/05/17 08:55:53;;;;;;;15.43;10.30;;;;;;;16.89;80.47;98622.63;4302438;33;33916;-84
2023/05/17 08:58:25;;;;;;;16.52;8.85;;;;;;;17.09;80.37;98632.69;4301835;33;33862;-85
2023/05/17 09:00:53;;;;;;;11.25;8.07;;;;;;;16.99;80.55;98625.00;4289853;33;34376;-83
2023/05/17 09:03:21;;;;;;;9.88;7.28;;;;;;;17.09;79.65;98620.44;4290196;33;33594;-86
2023/05/17 09:05:51;;;;;;;13.45;7.07;;;;;;;17.03;80.25;98626.66;4303138;33;34039;-82
2023/05/17 09:08:21;;;;;;;10.57;7.05;;;;;;;16.80;80.87;98626.31;4302834;33;34333;-81
2023/05/17 09:10:49;;;;;;;9.65;7.22;;;;;;;16.43;81.61;98623.53;4295312;33;33663;-86
2023/05/17 09:13:16;;;;;;;11.18;7.07;;;;;;;16.07;83.86;98623.34;4317087;33;34141;-83
2023/05/17 09:15:47;;;;;;;12.23;6.47;;;;;;;16.83;80.83;98617.53;4304029;33;33822;-82
2023/05/17 09:18:15;;;;;;;9.75;6.75;;;;;;;16.78;81.21;98608.03;4304352;33;34168;-86
2023/05/17 09:20:50;;;;;;;11.30;6.78;;;;;;;17.11;79.09;98609.91;4317443;33;33982;-81
2023/05/17 09:23:21;;;;;;;9.57;7.12;;;;;;;17.08;80.45;98615.22;4317313;33;33799;-85
2023/05/17 09:25:49;;;;;;;14.87;7.70;;;;;;;17.06;82.31;98619.66;4317698;33;35028;-87
2023/05/17 09:28:19;;;;;;;11.00;6.97;;;;;;;17.35;81.29;98616.34;4304172;33;34795;-82
2023/05/17 09:30:47;;;;;;;11.90;7.05;;;;;;;17.33;80.77;98620.78;4317829;33;33145;-82
2023/05/17 09:33:15;;;;;;;12.23;7.03;;;;;;;17.31;78.46;98626.03;4304029;33;33876;-84
2023/05/17 09:35:45;;;;;;;11.40;7.07;;;;;;;17.37;79.52;98633.75;4317164;33;33781;-86
2023/05/17 09:38:13;;;;;;;13.35;6.90;;;;;;;17.56;77.94;98647.28;4317414;33;34792;-82
2023/05/17 09:40:42;;;;;;;11.70;6.50;;;;;;;17.92;76.47;98650.81;4316300;33;33539;-83
2023/05/17 09:43:11;;;;;;;12.10;6.20;;;;;;;17.46;76.64;98656.25;4304672;33;34461;-88
2023/05/17 09:45:39;;;;;;;10.63;6.65;;;;;;;17.15;76.44;98659.56;4304187;33;34918;-82
2023/05/17 09:48:16;;;;;;;10.98;7.05;;;;;;;16.55;79.49;98667.75;4304188;33;34046;-82
2023/05/17 09:50:48;;;;;;;13.20;7.30;;;;;;;17.00;77.66;98663.38;4317418;33;33597;-86
2023/05/17 09:53:26;;;;;;;12.52;7.62;;;;;;;16.83;78.40;98667.28;4304336;33;33695;-88
2023/05/17 09:55:57;;;;;;;12.73;7.43;;;;;;;16.47;79.43;98667.91;4304058;33;34213;-82
2023/05/17 09:58:27;;;;;;;14.55;7.18;;;;;;;16.56;80.72;98672.13;4316892;33;34206;-81
2023/05/17 10:01:06;;;;;;;14.63;8.02;;;;;;;17.13;76.91;98671.88;4317115;33;33635;-86
2023/05/17 10:03:37;;;;;;;16.85;7.90;;;;;;;16.70;77.79;98679.69;4304060;33;33927;-84
2023/05/17 10:06:07;;;;;;;14.65;8.85;;;;;;;16.27;80.29;98691.84;4317187;33;35123;-82
2023/05/17 10:08:37;;;;;;;14.60;8.60;;;;;;;16.47;79.21;98691.47;4303497;33;33665;-82
2023/05/17 10:11:07;;;;;;;13.20;8.95;;;;;;;16.87;77.46;98684.63;4317026;33;34359;-84
2023/05/17 10:13:43;;;;;;;10.90;7.55;;;;;;;16.59;78.31;98679.03;4303874;33;33933;-87
2023/05/17 10:16:11;;;;;;;12.70;7.62;;;;;;;16.49;77.85;98684.47;4304147;33;34944;-81
2023/05/17 10:18:39;;;;;;;14.43;8.48;;;;;;;16.58;77.96;98687.78;4317155;33;33784;-84
2023/05/17 10:21:07;;;;;;;12.30;8.27;;;;;;;16.27;78.94;98688.34;4317217;33;33669;-82
2023/05/17 10:23:37;;;;;;;16.35;7.80;;;;;;;16.53;78.77;98685.25;4316861;33;35126;-82
2023/05/17 10:26:05;;;;;;;15.15;8.25;;;;;;;16.80;77.19;98685.66;4316779;33;34064;-82
2023/05/17 10:28:33;;;;;;;11.45;8.00;;;;;;;16.01;79.98;98687.06;4317251;33;33910;-86
2023/05/17 10:31:02;;;;;;;11.55;6.82;;;;;;;16.37;78.26;98686.44;4303841;33;33400;-87
2023/05/17 10:33:31;;;;;;;11.52;7.12;;;;;;;16.25;79.39;98685.78;4303883;33;34427;-82
2023/05/17 10:36:01;;;;;;;10.18;7.22;;;;;;;16.23;79.05;98691.91;4304036;33;34840;-86
2023/05/17 10:38:28;;;;;;;11.80;7.82;;;;;;;16.80;77.17;98685.66;4317170;33;34054;-80
2023/05/17 10:41:10;;;;;;;15.40;7.05;;;;;;;16.99;77.03;98695.72;4304951;33;32606;-81
2023/05/17 10:43:40;;;;;;;9.80;7.32;;;;;;;16.77;77.50;98699.66;4316789;33;33933;-84
2023/05/17 10:46:28;;;;;;;9.57;6.47;;;;;;;16.80;75.36;98699.59;4291665;33;33855;-81
2023/05/17 10:49:00;;;;;;;9.75;5.70;;;;;;;16.57;77.28;98707.00;4303586;33;33842;-81
2023/05/17 10:51:33;;;;;;;10.95;6.55;;;;;;;16.54;77.44;98713.16;4316797;33;34314;-80
2023/05/17 10:54:17;;;;;;;12.85;6.82;;;;;;;16.46;77.81;98705.44;4303766;33;33680;-81
2023/05/17 10:56:50;;;;;;;8.85;5.80;;;;;;;16.89;75.83;98699.41;4316341;33;34117;-86
2023/05/17 10:59:22;;;;;;;8.77;5.68;;;;;;;16.78;76.79;98704.87;4303234;33;32801;-82
2023/05/17 11:01:55;;;;;;;10.20;5.50;;;;;;;16.74;76.08;98720.66;4316456;33;33134;-87
2023/05/17 11:04:25;;;;;;;10.75;5.30;;;;;;;16.54;76.95;98726.22;4316650;33;34038;-86
2023/05/17 11:07:16;;;;;;;9.88;4.90;;;;;;;16.74;75.99;98726.78;4317010;33;35158;-87
2023/05/17 11:09:45;;;;;;;9.07;6.03;;;;;;;16.32;77.21;98732.75;4309158;33;34859;-81
2023/05/17 11:12:13;;;;;;;7.97;5.10;;;;;;;16.07;77.44;98727.06;4316310;33;34207;-87
2023/05/17 11:14:43;;;;;;;11.90;5.40;;;;;;;16.66;75.27;98735.59;4316250;33;34090;-83
2023/05/17 11:17:13;;;;;;;9.82;5.15;;;;;;;16.97;72.45;98723.69;4316298;33;33894;-87
2023/05/17 11:19:53;;;;;;;9.38;5.20;;;;;;;16.67;74.57;98730.38;4316479;33;34772;-85
2023/05/17 11:22:33;;;;;;;10.40;5.75;;;;;;;15.97;77.35;98731.56;4318396;33;32679;-84
2023/05/17 11:25:00;;;;;;;9.57;4.90;;;;;;;16.23;76.17;98732.00;4318667;33;34658;-86
2023/05/17 11:27:35;;;;;;;13.88;5.47;;;;;;;16.14;75.27;98737.41;4305169;33;34315;-81
2023/05/17 11:30:15;;;;;;;9.65;5.30;;;;;;;16.10;75.54;98740.06;4305027;33;33976;-83
2023/05/17 11:32:48;;;;;;;10.27;5.53;;;;;;;15.81;78.21;98742.28;4318489;33;34229;-88
2023/05/17 11:35:17;;;;;;;10.40;5.30;;;;;;;16.21;75.68;98743.37;4318246;33;34163;-85
2023/05/17 11:37:45;;;;;;;10.55;4.25;;;;;;;16.37;76.58;98749.25;4318022;33;35070;-86
2023/05/17 11:40:14;;;;;;;8.10;4.55;;;;;;;15.81;77.15;98746.66;4317986;33;34372;-82
2023/05/17 11:42:43;;;;;;;10.35;4.32;;;;;;;16.35;74.66;98743.16;4317116;33;34101;-81
2023/05/17 11:45:11;;;;;;;10.77;4.45;;;;;;;15.87;75.86;98756.13;4304877;33;33905;-88
2023/05/17 11:47:41;;;;;;;7.57;4.82;;;;;;;15.62;76.76;98746.00;4305128;33;34004;-87
2023/05/17 11:50:09;;;;;;;10.93;5.15;;;;;;;16.11;75.13;98753.16;4318026;33;33656;-86
2023/05/17 11:52:39;;;;;;;8.80;4.50;;;;;;;15.92;74.48;98743.87;4318220;33;34048;-82